sensor_id;sensor_type;location;lat;lon;timestamp;P1;durP1;ratioP1;P2;durP2;ratioP2
35488;SDS011;21602;55.670;37.578;2023-06-26T00:01:33;13.43;;;9.10;;
35488;SDS011;21602;55.670;37.578;2023-06-26T00:03:59;11.40;;;8.63;;
35488;SDS011;21602;55.670;37.578;2023-06-26T00:06:26;13.52;;;8.52;;
35488;SDS011;21602;55.670;37.578;2023-06-26T00:08:53;14.98;;;8.38;;
35488;SDS011;21602;55.670;37.578;2023-06-26T00:11:19;13.48;;;8.77;;
35488;SDS011;21602;55.670;37.578;2023-06-26T00:13:46;18.35;;;9.80;;
35488;SDS011;21602;55.670;37.578;2023-06-26T00:16:12;16.35;;;8.88;;
35488;SDS011;21602;55.670;37.578;2023-06-26T00:18:38;16.00;;;7.97;;
35488;SDS011;21602;55.670;37.578;2023-06-26T00:21:04;12.63;;;8.75;;
35488;SDS011;21602;55.670;37.578;2023-06-26T00:23:29;12.32;;;7.97;;
35488;SDS011;21602;55.670;37.578;2023-06-26T00:26:05;17.00;;;8.63;;
35488;SDS011;21602;55.670;37.578;2023-06-26T00:28:30;10.75;;;8.60;;
35488;SDS011;21602;55.670;37.578;2023-06-26T00:30:56;11.35;;;7.50;;
35488;SDS011;21602;55.670;37.578;2023-06-26T00:33:22;11.40;;;8.23;;
35488;SDS011;21602;55.670;37.578;2023-06-26T00:35:49;11.00;;;8.37;;
35488;SDS011;21602;55.670;37.578;2023-06-26T00:38:15;12.20;;;8.25;;
35488;SDS011;21602;55.670;37.578;2023-06-26T00:40:42;15.93;;;8.35;;
35488;SDS011;21602;55.670;37.578;2023-06-26T00:43:09;12.43;;;7.93;;
35488;SDS011;21602;55.670;37.578;2023-06-26T00:45:35;14.77;;;8.70;;
35488;SDS011;21602;55.670;37.578;2023-06-26T00:48:01;16.48;;;8.18;;
35488;SDS011;21602;55.670;37.578;2023-06-26T00:50:28;20.55;;;8.88;;
35488;SDS011;21602;55.670;37.578;2023-06-26T00:52:54;14.40;;;8.55;;
35488;SDS011;21602;55.670;37.578;2023-06-26T00:55:25;23.90;;;9.10;;
35488;SDS011;21602;55.670;37.578;2023-06-26T00:57:52;17.70;;;9.90;;
35488;SDS011;21602;55.670;37.578;2023-06-26T01:00:18;19.48;;;9.55;;
35488;SDS011;21602;55.670;37.578;2023-06-26T01:02:44;14.48;;;9.27;;
35488;SDS011;21602;55.670;37.578;2023-06-26T01:05:12;20.55;;;9.05;;
35488;SDS011;21602;55.670;37.578;2023-06-26T01:07:44;24.52;;;9.68;;
35488;SDS011;21602;55.670;37.578;2023-06-26T01:10:11;17.20;;;10.20;;
35488;SDS011;21602;55.670;37.578;2023-06-26T01:12:37;21.75;;;10.68;;
35488;SDS011;21602;55.670;37.578;2023-06-26T01:15:04;17.13;;;9.07;;
35488;SDS011;21602;55.670;37.578;2023-06-26T01:17:30;16.58;;;10.38;;
35488;SDS011;21602;55.670;37.578;2023-06-26T01:19:58;17.55;;;9.98;;
35488;SDS011;21602;55.670;37.578;2023-06-26T01:22:34;16.42;;;9.13;;
35488;SDS011;21602;55.670;37.578;2023-06-26T01:28:06;20.38;;;9.30;;
35488;SDS011;21602;55.670;37.578;2023-06-26T01:30:38;12.95;;;7.95;;
35488;SDS011;21602;55.670;37.578;2023-06-26T01:33:08;16.13;;;10.15;;
35488;SDS011;21602;55.670;37.578;2023-06-26T01:35:34;16.35;;;9.40;;
35488;SDS011;21602;55.670;37.578;2023-06-26T01:38:25;15.38;;;9.50;;
35488;SDS011;21602;55.670;37.578;2023-06-26T01:40:51;14.70;;;8.98;;
35488;SDS011;21602;55.670;37.578;2023-06-26T01:46:04;20.98;;;10.50;;
35488;SDS011;21602;55.670;37.578;2023-06-26T01:48:40;20.00;;;10.63;;
35488;SDS011;21602;55.670;37.578;2023-06-26T01:51:12;17.23;;;10.45;;
35488;SDS011;21602;55.670;37.578;2023-06-26T01:53:44;16.00;;;10.05;;
35488;SDS011;21602;55.670;37.578;2023-06-26T01:56:18;16.83;;;9.73;;
35488;SDS011;21602;55.670;37.578;2023-06-26T01:58:45;20.35;;;11.25;;
35488;SDS011;21602;55.670;37.578;2023-06-26T02:01:12;18.77;;;10.63;;
35488;SDS011;21602;55.670;37.578;2023-06-26T02:03:38;14.15;;;9.32;;
35488;SDS011;21602;55.670;37.578;2023-06-26T02:06:04;16.80;;;10.70;;
35488;SDS011;21602;55.670;37.578;2023-06-26T02:08:30;16.10;;;9.85;;
35488;SDS011;21602;55.670;37.578;2023-06-26T02:10:57;17.48;;;10.73;;
35488;SDS011;21602;55.670;37.578;2023-06-26T02:13:24;16.60;;;9.35;;
35488;SDS011;21602;55.670;37.578;2023-06-26T02:15:50;15.82;;;9.32;;
35488;SDS011;21602;55.670;37.578;2023-06-26T02:18:16;16.35;;;9.07;;
35488;SDS011;21602;55.670;37.578;2023-06-26T02:20:43;15.82;;;10.13;;
35488;SDS011;21602;55.670;37.578;2023-06-26T02:23:09;21.25;;;11.73;;
35488;SDS011;21602;55.670;37.578;2023-06-26T02:25:35;16.52;;;11.43;;
35488;SDS011;21602;55.670;37.578;2023-06-26T02:28:01;23.35;;;12.75;;
35488;SDS011;21602;55.670;37.578;2023-06-26T02:30:26;23.10;;;10.93;;
35488;SDS011;21602;55.670;37.578;2023-06-26T02:32:53;21.70;;;12.15;;
35488;SDS011;21602;55.670;37.578;2023-06-26T02:35:18;24.90;;;13.00;;
35488;SDS011;21602;55.670;37.578;2023-06-26T02:37:44;25.08;;;12.85;;
35488;SDS011;21602;55.670;37.578;2023-06-26T02:40:10;20.17;;;12.38;;
35488;SDS011;21602;55.670;37.578;2023-06-26T02:42:39;28.70;;;12.35;;
35488;SDS011;21602;55.670;37.578;2023-06-26T02:45:06;21.90;;;12.80;;
35488;SDS011;21602;55.670;37.578;2023-06-26T02:47:33;20.48;;;12.48;;
35488;SDS011;21602;55.670;37.578;2023-06-26T02:49:59;20.83;;;12.95;;
35488;SDS011;21602;55.670;37.578;2023-06-26T02:52:30;18.65;;;13.85;;
35488;SDS011;21602;55.670;37.578;2023-06-26T02:54:56;22.95;;;13.20;;
35488;SDS011;21602;55.670;37.578;2023-06-26T02:57:22;20.15;;;13.43;;
35488;SDS011;21602;55.670;37.578;2023-06-26T02:59:48;19.10;;;13.20;;
35488;SDS011;21602;55.670;37.578;2023-06-26T03:02:14;21.77;;;13.23;;
35488;SDS011;21602;55.670;37.578;2023-06-26T03:04:43;24.48;;;14.30;;
35488;SDS011;21602;55.670;37.578;2023-06-26T03:07:12;25.73;;;14.57;;
35488;SDS011;21602;55.670;37.578;2023-06-26T03:09:40;27.85;;;13.98;;
35488;SDS011;21602;55.670;37.578;2023-06-26T03:12:06;23.77;;;13.25;;
35488;SDS011;21602;55.670;37.578;2023-06-26T03:14:33;24.55;;;13.63;;
35488;SDS011;21602;55.670;37.578;2023-06-26T03:17:10;24.30;;;12.48;;
35488;SDS011;21602;55.670;37.578;2023-06-26T03:19:40;22.33;;;14.65;;
35488;SDS011;21602;55.670;37.578;2023-06-26T03:22:18;22.30;;;14.48;;
35488;SDS011;21602;55.670;37.578;2023-06-26T03:24:45;24.23;;;14.52;;
35488;SDS011;21602;55.670;37.578;2023-06-26T03:27:11;23.95;;;14.98;;
35488;SDS011;21602;55.670;37.578;2023-06-26T03:29:37;20.83;;;15.50;;
35488;SDS011;21602;55.670;37.578;2023-06-26T03:32:04;18.73;;;12.82;;
35488;SDS011;21602;55.670;37.578;2023-06-26T03:34:30;18.02;;;13.85;;
35488;SDS011;21602;55.670;37.578;2023-06-26T03:36:56;23.02;;;14.90;;
35488;SDS011;21602;55.670;37.578;2023-06-26T03:39:22;24.13;;;13.82;;
35488;SDS011;21602;55.670;37.578;2023-06-26T03:41:48;24.70;;;14.50;;
35488;SDS011;21602;55.670;37.578;2023-06-26T03:44:14;21.98;;;14.38;;
35488;SDS011;21602;55.670;37.578;2023-06-26T03:46:45;27.45;;;13.13;;
35488;SDS011;21602;55.670;37.578;2023-06-26T03:49:10;18.27;;;12.93;;
35488;SDS011;21602;55.670;37.578;2023-06-26T03:51:36;23.35;;;14.50;;
35488;SDS011;21602;55.670;37.578;2023-06-26T03:54:03;19.75;;;13.63;;
35488;SDS011;21602;55.670;37.578;2023-06-26T03:56:28;26.73;;;14.18;;
35488;SDS011;21602;55.670;37.578;2023-06-26T03:58:54;21.75;;;14.27;;
35488;SDS011;21602;55.670;37.578;2023-06-26T04:01:29;20.98;;;15.13;;
35488;SDS011;21602;55.670;37.578;2023-06-26T04:03:54;28.65;;;16.25;;
35488;SDS011;21602;55.670;37.578;2023-06-26T04:06:26;23.42;;;15.02;;
35488;SDS011;21602;55.670;37.578;2023-06-26T04:11:53;30.80;;;15.55;;
35488;SDS011;21602;55.670;37.578;2023-06-26T04:14:19;25.17;;;16.23;;
35488;SDS011;21602;55.670;37.578;2023-06-26T04:16:54;24.13;;;15.55;;
35488;SDS011;21602;55.670;37.578;2023-06-26T04:19:20;48.88;;;22.25;;
35488;SDS011;21602;55.670;37.578;2023-06-26T04:21:45;34.70;;;16.08;;
35488;SDS011;21602;55.670;37.578;2023-06-26T04:26:39;27.98;;;16.02;;
35488;SDS011;21602;55.670;37.578;2023-06-26T04:29:10;26.95;;;18.08;;
35488;SDS011;21602;55.670;37.578;2023-06-26T04:31:36;23.48;;;15.82;;
35488;SDS011;21602;55.670;37.578;2023-06-26T04:34:12;30.63;;;16.35;;
35488;SDS011;21602;55.670;37.578;2023-06-26T04:36:39;41.45;;;17.15;;
35488;SDS011;21602;55.670;37.578;2023-06-26T04:39:14;36.53;;;16.08;;
35488;SDS011;21602;55.670;37.578;2023-06-26T04:41:40;33.30;;;16.50;;
35488;SDS011;21602;55.670;37.578;2023-06-26T04:44:06;33.33;;;14.70;;
35488;SDS011;21602;55.670;37.578;2023-06-26T04:46:36;25.02;;;14.65;;
35488;SDS011;21602;55.670;37.578;2023-06-26T04:49:09;29.67;;;15.02;;
35488;SDS011;21602;55.670;37.578;2023-06-26T04:51:38;32.15;;;18.98;;
35488;SDS011;21602;55.670;37.578;2023-06-26T04:54:07;26.05;;;17.20;;
35488;SDS011;21602;55.670;37.578;2023-06-26T04:56:38;36.65;;;18.67;;
35488;SDS011;21602;55.670;37.578;2023-06-26T04:59:07;23.45;;;14.07;;
35488;SDS011;21602;55.670;37.578;2023-06-26T05:01:38;25.27;;;14.50;;
35488;SDS011;21602;55.670;37.578;2023-06-26T05:04:07;25.33;;;13.60;;
35488;SDS011;21602;55.670;37.578;2023-06-26T05:06:34;25.05;;;13.35;;
35488;SDS011;21602;55.670;37.578;2023-06-26T05:09:03;22.40;;;12.25;;
35488;SDS011;21602;55.670;37.578;2023-06-26T05:11:30;15.25;;;11.07;;
35488;SDS011;21602;55.670;37.578;2023-06-26T05:13:59;16.27;;;11.20;;
35488;SDS011;21602;55.670;37.578;2023-06-26T05:16:25;19.50;;;10.63;;
35488;SDS011;21602;55.670;37.578;2023-06-26T05:18:53;14.57;;;9.10;;
35488;SDS011;21602;55.670;37.578;2023-06-26T05:21:25;15.63;;;10.60;;
35488;SDS011;21602;55.670;37.578;2023-06-26T05:23:56;12.02;;;9.52;;
35488;SDS011;21602;55.670;37.578;2023-06-26T05:26:23;14.48;;;8.90;;
35488;SDS011;21602;55.670;37.578;2023-06-26T05:28:50;16.23;;;8.87;;
35488;SDS011;21602;55.670;37.578;2023-06-26T05:31:20;20.20;;;11.07;;
35488;SDS011;21602;55.670;37.578;2023-06-26T05:33:46;15.38;;;9.55;;
35488;SDS011;21602;55.670;37.578;2023-06-26T05:36:20;15.82;;;9.40;;
35488;SDS011;21602;55.670;37.578;2023-06-26T05:38:49;20.73;;;11.82;;
35488;SDS011;21602;55.670;37.578;2023-06-26T05:41:19;25.17;;;15.45;;
35488;SDS011;21602;55.670;37.578;2023-06-26T05:43:51;17.63;;;10.02;;
35488;SDS011;21602;55.670;37.578;2023-06-26T05:46:19;19.83;;;11.23;;
35488;SDS011;21602;55.670;37.578;2023-06-26T05:48:45;16.83;;;8.73;;
35488;SDS011;21602;55.670;37.578;2023-06-26T05:51:12;15.82;;;8.80;;
35488;SDS011;21602;55.670;37.578;2023-06-26T05:53:38;12.55;;;9.32;;
35488;SDS011;21602;55.670;37.578;2023-06-26T05:56:05;13.35;;;8.45;;
35488;SDS011;21602;55.670;37.578;2023-06-26T05:58:31;13.95;;;8.18;;
35488;SDS011;21602;55.670;37.578;2023-06-26T06:00:58;13.57;;;8.85;;
35488;SDS011;21602;55.670;37.578;2023-06-26T06:03:24;14.35;;;8.48;;
35488;SDS011;21602;55.670;37.578;2023-06-26T06:05:52;11.15;;;7.97;;
35488;SDS011;21602;55.670;37.578;2023-06-26T06:08:18;13.65;;;7.43;;
35488;SDS011;21602;55.670;37.578;2023-06-26T06:10:44;7.70;;;6.85;;
35488;SDS011;21602;55.670;37.578;2023-06-26T06:13:10;10.43;;;6.53;;
35488;SDS011;21602;55.670;37.578;2023-06-26T06:15:36;7.22;;;5.75;;
35488;SDS011;21602;55.670;37.578;2023-06-26T06:18:01;9.30;;;5.80;;
35488;SDS011;21602;55.670;37.578;2023-06-26T06:20:28;6.05;;;5.50;;
35488;SDS011;21602;55.670;37.578;2023-06-26T06:22:54;8.05;;;6.00;;
35488;SDS011;21602;55.670;37.578;2023-06-26T06:25:19;11.13;;;5.63;;
35488;SDS011;21602;55.670;37.578;2023-06-26T06:27:45;8.23;;;4.78;;
35488;SDS011;21602;55.670;37.578;2023-06-26T06:30:11;10.95;;;6.85;;
35488;SDS011;21602;55.670;37.578;2023-06-26T06:32:40;7.88;;;5.07;;
35488;SDS011;21602;55.670;37.578;2023-06-26T06:35:06;7.00;;;5.00;;
35488;SDS011;21602;55.670;37.578;2023-06-26T06:37:36;8.75;;;6.07;;
35488;SDS011;21602;55.670;37.578;2023-06-26T06:42:31;9.27;;;6.03;;
35488;SDS011;21602;55.670;37.578;2023-06-26T06:44:58;10.70;;;6.22;;
35488;SDS011;21602;55.670;37.578;2023-06-26T06:47:24;8.25;;;5.78;;
35488;SDS011;21602;55.670;37.578;2023-06-26T06:49:50;7.25;;;5.10;;
35488;SDS011;21602;55.670;37.578;2023-06-26T06:52:15;8.50;;;5.80;;
35488;SDS011;21602;55.670;37.578;2023-06-26T06:54:51;8.63;;;6.32;;
35488;SDS011;21602;55.670;37.578;2023-06-26T06:57:19;14.38;;;9.93;;
35488;SDS011;21602;55.670;37.578;2023-06-26T06:59:48;7.53;;;4.45;;
35488;SDS011;21602;55.670;37.578;2023-06-26T07:02:14;6.65;;;5.75;;
35488;SDS011;21602;55.670;37.578;2023-06-26T07:04:41;5.70;;;4.88;;
35488;SDS011;21602;55.670;37.578;2023-06-26T07:07:11;8.90;;;5.43;;
35488;SDS011;21602;55.670;37.578;2023-06-26T07:09:39;9.80;;;5.20;;
35488;SDS011;21602;55.670;37.578;2023-06-26T07:12:05;7.57;;;5.88;;
35488;SDS011;21602;55.670;37.578;2023-06-26T07:14:31;6.28;;;4.90;;
35488;SDS011;21602;55.670;37.578;2023-06-26T07:16:56;12.07;;;8.52;;
35488;SDS011;21602;55.670;37.578;2023-06-26T07:19:22;6.90;;;4.80;;
35488;SDS011;21602;55.670;37.578;2023-06-26T07:21:50;10.90;;;7.80;;
35488;SDS011;21602;55.670;37.578;2023-06-26T07:26:59;9.95;;;6.60;;
35488;SDS011;21602;55.670;37.578;2023-06-26T07:29:36;9.63;;;7.10;;
35488;SDS011;21602;55.670;37.578;2023-06-26T07:32:07;8.65;;;4.72;;
35488;SDS011;21602;55.670;37.578;2023-06-26T07:34:53;12.13;;;7.45;;
35488;SDS011;21602;55.670;37.578;2023-06-26T07:37:19;8.95;;;5.88;;
35488;SDS011;21602;55.670;37.578;2023-06-26T07:39:45;9.18;;;5.07;;
35488;SDS011;21602;55.670;37.578;2023-06-26T07:42:11;9.35;;;6.05;;
35488;SDS011;21602;55.670;37.578;2023-06-26T07:44:46;10.48;;;8.68;;
35488;SDS011;21602;55.670;37.578;2023-06-26T07:47:16;7.72;;;5.95;;
35488;SDS011;21602;55.670;37.578;2023-06-26T07:49:45;7.97;;;5.68;;
35488;SDS011;21602;55.670;37.578;2023-06-26T07:52:14;12.63;;;7.95;;
35488;SDS011;21602;55.670;37.578;2023-06-26T07:55:00;11.85;;;6.03;;
35488;SDS011;21602;55.670;37.578;2023-06-26T07:57:29;9.38;;;6.95;;
35488;SDS011;21602;55.670;37.578;2023-06-26T08:00:00;6.30;;;5.00;;
35488;SDS011;21602;55.670;37.578;2023-06-26T08:02:57;12.57;;;5.05;;
35488;SDS011;21602;55.670;37.578;2023-06-26T08:05:27;12.10;;;6.55;;
35488;SDS011;21602;55.670;37.578;2023-06-26T08:08:04;9.40;;;5.82;;
35488;SDS011;21602;55.670;37.578;2023-06-26T08:10:30;6.07;;;5.43;;
35488;SDS011;21602;55.670;37.578;2023-06-26T08:12:57;6.87;;;6.13;;
35488;SDS011;21602;55.670;37.578;2023-06-26T08:15:23;6.45;;;5.00;;
35488;SDS011;21602;55.670;37.578;2023-06-26T08:17:49;6.30;;;4.68;;
35488;SDS011;21602;55.670;37.578;2023-06-26T08:20:15;7.53;;;6.00;;
35488;SDS011;21602;55.670;37.578;2023-06-26T08:22:41;7.72;;;6.00;;
35488;SDS011;21602;55.670;37.578;2023-06-26T08:25:08;5.80;;;5.07;;
35488;SDS011;21602;55.670;37.578;2023-06-26T08:27:34;7.03;;;5.18;;
35488;SDS011;21602;55.670;37.578;2023-06-26T08:30:00;12.88;;;10.23;;
35488;SDS011;21602;55.670;37.578;2023-06-26T08:32:28;9.98;;;6.78;;
35488;SDS011;21602;55.670;37.578;2023-06-26T08:34:54;7.60;;;6.45;;
35488;SDS011;21602;55.670;37.578;2023-06-26T08:37:20;9.20;;;6.00;;
35488;SDS011;21602;55.670;37.578;2023-06-26T08:39:46;7.47;;;5.80;;
35488;SDS011;21602;55.670;37.578;2023-06-26T08:42:13;6.75;;;5.05;;
35488;SDS011;21602;55.670;37.578;2023-06-26T08:44:39;7.10;;;5.75;;
35488;SDS011;21602;55.670;37.578;2023-06-26T08:47:05;5.47;;;4.50;;
35488;SDS011;21602;55.670;37.578;2023-06-26T08:52:28;5.93;;;5.30;;
35488;SDS011;21602;55.670;37.578;2023-06-26T08:54:59;12.70;;;5.30;;
35488;SDS011;21602;55.670;37.578;2023-06-26T08:57:29;9.40;;;4.97;;
35488;SDS011;21602;55.670;37.578;2023-06-26T08:59:57;8.82;;;5.63;;
35488;SDS011;21602;55.670;37.578;2023-06-26T09:02:30;9.30;;;5.45;;
35488;SDS011;21602;55.670;37.578;2023-06-26T09:04:56;6.75;;;5.03;;
35488;SDS011;21602;55.670;37.578;2023-06-26T09:07:22;5.93;;;5.30;;
35488;SDS011;21602;55.670;37.578;2023-06-26T09:09:48;7.15;;;5.82;;
35488;SDS011;21602;55.670;37.578;2023-06-26T09:12:14;10.25;;;6.10;;
35488;SDS011;21602;55.670;37.578;2023-06-26T09:14:40;10.80;;;5.68;;
35488;SDS011;21602;55.670;37.578;2023-06-26T09:17:06;10.38;;;6.15;;
35488;SDS011;21602;55.670;37.578;2023-06-26T09:19:32;10.35;;;5.80;;
35488;SDS011;21602;55.670;37.578;2023-06-26T09:22:01;7.72;;;6.05;;
35488;SDS011;21602;55.670;37.578;2023-06-26T09:24:27;7.78;;;5.28;;
35488;SDS011;21602;55.670;37.578;2023-06-26T09:26:55;10.60;;;5.22;;
35488;SDS011;21602;55.670;37.578;2023-06-26T09:29:21;7.55;;;5.90;;
35488;SDS011;21602;55.670;37.578;2023-06-26T09:31:47;9.63;;;5.97;;
35488;SDS011;21602;55.670;37.578;2023-06-26T09:34:13;16.33;;;7.45;;
35488;SDS011;21602;55.670;37.578;2023-06-26T09:36:39;13.27;;;6.70;;
35488;SDS011;21602;55.670;37.578;2023-06-26T09:41:36;8.13;;;5.95;;
35488;SDS011;21602;55.670;37.578;2023-06-26T09:44:05;7.90;;;4.88;;
35488;SDS011;21602;55.670;37.578;2023-06-26T09:46:33;8.32;;;5.82;;
35488;SDS011;21602;55.670;37.578;2023-06-26T09:49:01;7.07;;;6.30;;
35488;SDS011;21602;55.670;37.578;2023-06-26T09:51:30;7.50;;;5.00;;
35488;SDS011;21602;55.670;37.578;2023-06-26T09:53:57;6.85;;;5.72;;
35488;SDS011;21602;55.670;37.578;2023-06-26T09:56:23;9.50;;;5.38;;
35488;SDS011;21602;55.670;37.578;2023-06-26T09:58:50;5.60;;;4.82;;
35488;SDS011;21602;55.670;37.578;2023-06-26T10:01:17;7.80;;;5.22;;
35488;SDS011;21602;55.670;37.578;2023-06-26T10:03:44;9.00;;;7.17;;
35488;SDS011;21602;55.670;37.578;2023-06-26T10:06:09;7.80;;;5.68;;
35488;SDS011;21602;55.670;37.578;2023-06-26T10:08:39;9.48;;;8.57;;
35488;SDS011;21602;55.670;37.578;2023-06-26T10:11:05;7.00;;;5.63;;
35488;SDS011;21602;55.670;37.578;2023-06-26T10:13:41;7.45;;;6.38;;
35488;SDS011;21602;55.670;37.578;2023-06-26T10:16:11;10.98;;;7.38;;
35488;SDS011;21602;55.670;37.578;2023-06-26T10:18:43;7.72;;;5.50;;
35488;SDS011;21602;55.670;37.578;2023-06-26T10:21:13;7.85;;;6.78;;
35488;SDS011;21602;55.670;37.578;2023-06-26T10:23:39;5.15;;;4.75;;
35488;SDS011;21602;55.670;37.578;2023-06-26T10:26:09;9.68;;;5.28;;
35488;SDS011;21602;55.670;37.578;2023-06-26T10:28:36;8.13;;;7.03;;
35488;SDS011;21602;55.670;37.578;2023-06-26T10:31:04;6.20;;;5.33;;
35488;SDS011;21602;55.670;37.578;2023-06-26T10:33:32;9.85;;;8.25;;
35488;SDS011;21602;55.670;37.578;2023-06-26T10:36:13;5.50;;;4.95;;
35488;SDS011;21602;55.670;37.578;2023-06-26T10:38:58;17.67;;;11.25;;
35488;SDS011;21602;55.670;37.578;2023-06-26T10:41:30;13.18;;;11.75;;
35488;SDS011;21602;55.670;37.578;2023-06-26T10:44:06;7.65;;;5.25;;
35488;SDS011;21602;55.670;37.578;2023-06-26T10:46:35;8.75;;;7.05;;
35488;SDS011;21602;55.670;37.578;2023-06-26T10:49:18;7.32;;;6.10;;
35488;SDS011;21602;55.670;37.578;2023-06-26T10:51:50;7.85;;;5.75;;
35488;SDS011;21602;55.670;37.578;2023-06-26T10:54:17;6.93;;;6.22;;
35488;SDS011;21602;55.670;37.578;2023-06-26T10:56:54;7.65;;;6.60;;
35488;SDS011;21602;55.670;37.578;2023-06-26T10:59:25;7.72;;;5.15;;
35488;SDS011;21602;55.670;37.578;2023-06-26T11:02:01;10.18;;;5.47;;
35488;SDS011;21602;55.670;37.578;2023-06-26T11:04:50;7.32;;;5.25;;
35488;SDS011;21602;55.670;37.578;2023-06-26T11:07:19;5.95;;;5.32;;
35488;SDS011;21602;55.670;37.578;2023-06-26T11:12:36;16.80;;;6.10;;
35488;SDS011;21602;55.670;37.578;2023-06-26T11:15:11;7.03;;;5.97;;
35488;SDS011;21602;55.670;37.578;2023-06-26T11:17:42;9.15;;;5.22;;
35488;SDS011;21602;55.670;37.578;2023-06-26T11:20:13;8.98;;;5.65;;
35488;SDS011;21602;55.670;37.578;2023-06-26T11:22:41;8.07;;;6.03;;
35488;SDS011;21602;55.670;37.578;2023-06-26T11:25:09;7.93;;;5.13;;
35488;SDS011;21602;55.670;37.578;2023-06-26T11:27:42;7.80;;;5.03;;
35488;SDS011;21602;55.670;37.578;2023-06-26T11:30:22;5.70;;;5.07;;
35488;SDS011;21602;55.670;37.578;2023-06-26T11:32:50;6.85;;;5.07;;
35488;SDS011;21602;55.670;37.578;2023-06-26T11:35:25;9.43;;;5.40;;
35488;SDS011;21602;55.670;37.578;2023-06-26T11:37:59;7.93;;;5.03;;
35488;SDS011;21602;55.670;37.578;2023-06-26T11:40:32;6.43;;;5.03;;
35488;SDS011;21602;55.670;37.578;2023-06-26T11:43:02;6.63;;;4.93;;
35488;SDS011;21602;55.670;37.578;2023-06-26T11:45:29;6.63;;;5.07;;
35488;SDS011;21602;55.670;37.578;2023-06-26T11:47:56;6.95;;;5.20;;
35488;SDS011;21602;55.670;37.578;2023-06-26T11:50:23;7.65;;;5.10;;
35488;SDS011;21602;55.670;37.578;2023-06-26T11:52:56;8.13;;;5.43;;
35488;SDS011;21602;55.670;37.578;2023-06-26T11:55:23;7.00;;;5.60;;
35488;SDS011;21602;55.670;37.578;2023-06-26T11:57:50;5.05;;;4.45;;
35488;SDS011;21602;55.670;37.578;2023-06-26T12:00:19;9.15;;;4.95;;
35488;SDS011;21602;55.670;37.578;2023-06-26T12:02:54;11.68;;;6.30;;
35488;SDS011;21602;55.670;37.578;2023-06-26T12:05:20;10.65;;;6.40;;
35488;SDS011;21602;55.670;37.578;2023-06-26T12:07:47;8.55;;;7.10;;
35488;SDS011;21602;55.670;37.578;2023-06-26T12:10:15;7.88;;;7.07;;
35488;SDS011;21602;55.670;37.578;2023-06-26T12:12:45;7.82;;;4.93;;
35488;SDS011;21602;55.670;37.578;2023-06-26T12:15:15;10.00;;;5.30;;
35488;SDS011;21602;55.670;37.578;2023-06-26T12:17:44;7.10;;;5.13;;
35488;SDS011;21602;55.670;37.578;2023-06-26T12:20:26;8.98;;;7.20;;
35488;SDS011;21602;55.670;37.578;2023-06-26T12:22:59;13.30;;;5.90;;
35488;SDS011;21602;55.670;37.578;2023-06-26T12:25:25;8.85;;;7.35;;
35488;SDS011;21602;55.670;37.578;2023-06-26T12:27:51;7.57;;;4.85;;
35488;SDS011;21602;55.670;37.578;2023-06-26T12:30:20;7.18;;;5.18;;
35488;SDS011;21602;55.670;37.578;2023-06-26T12:32:48;6.60;;;5.35;;
35488;SDS011;21602;55.670;37.578;2023-06-26T12:35:22;10.02;;;5.43;;
35488;SDS011;21602;55.670;37.578;2023-06-26T12:37:48;8.35;;;6.18;;
35488;SDS011;21602;55.670;37.578;2023-06-26T12:40:17;5.72;;;5.13;;
35488;SDS011;21602;55.670;37.578;2023-06-26T12:42:50;6.75;;;5.63;;
35488;SDS011;21602;55.670;37.578;2023-06-26T12:45:16;6.80;;;5.00;;
35488;SDS011;21602;55.670;37.578;2023-06-26T12:47:42;6.82;;;4.90;;
35488;SDS011;21602;55.670;37.578;2023-06-26T12:50:08;5.63;;;4.95;;
35488;SDS011;21602;55.670;37.578;2023-06-26T12:52:34;7.55;;;5.25;;
35488;SDS011;21602;55.670;37.578;2023-06-26T12:55:01;7.15;;;4.20;;
35488;SDS011;21602;55.670;37.578;2023-06-26T12:57:27;5.85;;;4.57;;
35488;SDS011;21602;55.670;37.578;2023-06-26T12:59:53;6.75;;;4.68;;
35488;SDS011;21602;55.670;37.578;2023-06-26T13:02:19;7.15;;;4.88;;
35488;SDS011;21602;55.670;37.578;2023-06-26T13:04:45;5.18;;;4.68;;
35488;SDS011;21602;55.670;37.578;2023-06-26T13:07:11;7.32;;;4.78;;
35488;SDS011;21602;55.670;37.578;2023-06-26T13:09:38;6.38;;;5.70;;
35488;SDS011;21602;55.670;37.578;2023-06-26T13:12:04;5.88;;;4.20;;
35488;SDS011;21602;55.670;37.578;2023-06-26T13:14:32;8.25;;;4.75;;
35488;SDS011;21602;55.670;37.578;2023-06-26T13:16:59;6.85;;;4.47;;
35488;SDS011;21602;55.670;37.578;2023-06-26T13:19:26;15.25;;;6.53;;
35488;SDS011;21602;55.670;37.578;2023-06-26T13:21:53;5.32;;;4.68;;
35488;SDS011;21602;55.670;37.578;2023-06-26T13:24:20;7.97;;;5.65;;
35488;SDS011;21602;55.670;37.578;2023-06-26T13:26:46;5.57;;;4.57;;
35488;SDS011;21602;55.670;37.578;2023-06-26T13:29:12;4.20;;;3.85;;
35488;SDS011;21602;55.670;37.578;2023-06-26T13:31:38;6.07;;;4.50;;
35488;SDS011;21602;55.670;37.578;2023-06-26T13:34:04;4.95;;;4.47;;
35488;SDS011;21602;55.670;37.578;2023-06-26T13:36:30;5.70;;;5.13;;
35488;SDS011;21602;55.670;37.578;2023-06-26T13:38:59;5.38;;;4.65;;
35488;SDS011;21602;55.670;37.578;2023-06-26T13:41:25;6.65;;;5.47;;
35488;SDS011;21602;55.670;37.578;2023-06-26T13:43:51;6.25;;;5.03;;
35488;SDS011;21602;55.670;37.578;2023-06-26T13:46:17;6.10;;;4.60;;
35488;SDS011;21602;55.670;37.578;2023-06-26T13:48:44;6.75;;;4.85;;
35488;SDS011;21602;55.670;37.578;2023-06-26T13:51:11;4.37;;;3.80;;
35488;SDS011;21602;55.670;37.578;2023-06-26T13:53:37;18.20;;;11.43;;
35488;SDS011;21602;55.670;37.578;2023-06-26T13:56:03;5.85;;;4.85;;
35488;SDS011;21602;55.670;37.578;2023-06-26T13:58:29;11.32;;;8.98;;
35488;SDS011;21602;55.670;37.578;2023-06-26T14:00:59;5.07;;;4.10;;
35488;SDS011;21602;55.670;37.578;2023-06-26T14:03:26;10.50;;;9.02;;
35488;SDS011;21602;55.670;37.578;2023-06-26T14:05:53;7.32;;;6.32;;
35488;SDS011;21602;55.670;37.578;2023-06-26T14:08:19;10.60;;;7.88;;
35488;SDS011;21602;55.670;37.578;2023-06-26T14:10:44;11.35;;;7.57;;
35488;SDS011;21602;55.670;37.578;2023-06-26T14:13:10;6.20;;;5.35;;
35488;SDS011;21602;55.670;37.578;2023-06-26T14:15:40;12.32;;;4.53;;
35488;SDS011;21602;55.670;37.578;2023-06-26T14:18:14;6.40;;;4.50;;
35488;SDS011;21602;55.670;37.578;2023-06-26T14:20:55;4.75;;;4.28;;
35488;SDS011;21602;55.670;37.578;2023-06-26T14:23:21;8.57;;;4.15;;
35488;SDS011;21602;55.670;37.578;2023-06-26T14:25:48;5.05;;;4.47;;
35488;SDS011;21602;55.670;37.578;2023-06-26T14:28:15;6.88;;;6.18;;
35488;SDS011;21602;55.670;37.578;2023-06-26T14:30:41;4.40;;;3.92;;
35488;SDS011;21602;55.670;37.578;2023-06-26T14:33:07;8.88;;;4.85;;
35488;SDS011;21602;55.670;37.578;2023-06-26T14:35:33;4.70;;;4.25;;
35488;SDS011;21602;55.670;37.578;2023-06-26T14:37:58;4.78;;;3.95;;
35488;SDS011;21602;55.670;37.578;2023-06-26T14:40:24;4.20;;;3.80;;
35488;SDS011;21602;55.670;37.578;2023-06-26T14:42:50;5.90;;;3.92;;
35488;SDS011;21602;55.670;37.578;2023-06-26T14:45:17;5.18;;;3.58;;
35488;SDS011;21602;55.670;37.578;2023-06-26T14:47:43;5.18;;;4.25;;
35488;SDS011;21602;55.670;37.578;2023-06-26T14:50:09;5.65;;;4.68;;
35488;SDS011;21602;55.670;37.578;2023-06-26T14:52:35;6.45;;;4.55;;
35488;SDS011;21602;55.670;37.578;2023-06-26T14:55:02;6.22;;;4.88;;